createdAt,value
2022-11-16T00:00:04.415Z,0
2022-11-16T00:11:11.702Z,0
2022-11-16T00:24:06.156Z,0
2022-11-16T00:28:31.318Z,0
2022-11-16T00:43:38.385Z,0
2022-11-16T00:48:23.789Z,0
2022-11-16T00:53:23.761Z,0
2022-11-16T00:58:23.755Z,0
2022-11-16T01:03:23.718Z,0
2022-11-16T01:08:23.746Z,0
2022-11-16T01:13:23.861Z,0
2022-11-16T01:18:24.444Z,0
2022-11-16T01:23:23.923Z,0
2022-11-16T01:28:23.896Z,0
2022-11-16T01:33:24.154Z,0
2022-11-16T01:38:25.984Z,0
2022-11-16T01:43:23.840Z,0
2022-11-16T01:48:24.046Z,0
2022-11-16T01:53:23.788Z,0
2022-11-16T01:58:23.809Z,0
2022-11-16T02:03:23.849Z,0
2022-11-16T02:08:23.841Z,0
2022-11-16T02:13:23.866Z,0
2022-11-16T02:18:23.746Z,0
2022-11-16T02:23:23.753Z,0
2022-11-16T02:28:23.725Z,0
2022-11-16T02:33:23.712Z,0
2022-11-16T02:38:23.772Z,0
2022-11-16T02:43:23.728Z,0
2022-11-16T02:48:23.764Z,0
2022-11-16T02:53:23.759Z,0
2022-11-16T02:58:23.788Z,0
2022-11-16T03:03:23.724Z,0
2022-11-16T03:08:23.783Z,0
2022-11-16T03:13:23.873Z,0
2022-11-16T03:18:23.833Z,0
2022-11-16T03:23:23.869Z,0
2022-11-16T03:28:23.762Z,0
2022-11-16T03:33:23.776Z,0
2022-11-16T03:38:23.783Z,0
2022-11-16T03:43:23.745Z,0
2022-11-16T03:48:23.821Z,0
2022-11-16T03:53:23.760Z,0
2022-11-16T03:58:23.864Z,0
2022-11-16T04:03:23.858Z,0
2022-11-16T04:08:23.830Z,0
2022-11-16T04:13:24.026Z,0
2022-11-16T04:18:23.793Z,0
2022-11-16T04:23:23.834Z,0
2022-11-16T04:28:23.804Z,0
2022-11-16T04:33:23.813Z,0
2022-11-16T04:38:23.803Z,0
2022-11-16T04:43:23.822Z,0
2022-11-16T04:48:23.864Z,0
2022-11-16T04:53:23.990Z,0
2022-11-16T04:58:23.765Z,0
2022-11-16T05:03:23.879Z,0
2022-11-16T05:08:23.875Z,0
2022-11-16T05:13:24.500Z,0
2022-11-16T05:18:23.979Z,0
2022-11-16T05:23:23.846Z,0
2022-11-16T05:33:36.845Z,0
2022-11-16T05:38:23.848Z,0
2022-11-16T05:43:23.917Z,0
2022-11-16T05:48:35.016Z,0
2022-11-16T05:53:23.886Z,0
2022-11-16T05:58:24.122Z,0
2022-11-16T06:03:30.406Z,0
2022-11-16T06:08:24.294Z,0
2022-11-16T06:13:23.875Z,0
2022-11-16T06:18:35.710Z,256
2022-11-16T06:23:23.916Z,0
2022-11-16T06:28:23.829Z,256
2022-11-16T06:33:35.517Z,257
2022-11-16T06:38:24.001Z,258
2022-11-16T06:43:23.796Z,261
2022-11-16T06:48:36.046Z,264
2022-11-16T06:53:28.891Z,270
2022-11-16T06:58:23.777Z,273
2022-11-16T07:08:23.797Z,277
2022-11-16T07:13:23.754Z,280
2022-11-16T07:18:34.304Z,275
2022-11-16T07:23:23.989Z,285
2022-11-16T07:28:23.809Z,316
2022-11-16T07:33:33.416Z,334
2022-11-16T07:38:23.879Z,338
2022-11-16T07:43:23.969Z,301
2022-11-16T07:48:40.822Z,287
2022-11-16T07:53:23.833Z,270
2022-11-16T07:58:23.777Z,305
2022-11-16T08:03:34.041Z,314
2022-11-16T08:08:24.017Z,312
2022-11-16T08:13:23.931Z,345
2022-11-16T08:18:50.343Z,340
2022-11-16T08:23:23.894Z,358
2022-11-16T08:28:24.161Z,347
2022-11-16T08:34:12.498Z,360
2022-11-16T08:53:25.461Z,455
2022-11-16T08:58:26.465Z,427
2022-11-16T09:03:26.751Z,419
2022-11-16T09:08:25.115Z,393
2022-11-16T09:13:24.488Z,435
2022-11-16T09:18:24.368Z,428
2022-11-16T09:23:27.810Z,430
2022-11-16T09:28:28.421Z,403
2022-11-16T09:33:26.518Z,431
2022-11-16T09:38:40.112Z,411
2022-11-16T09:43:45.680Z,409
2022-11-16T09:48:24.090Z,463
2022-11-16T09:53:24.530Z,538
2022-11-16T09:58:24.481Z,571
2022-11-16T10:03:24.367Z,577
2022-11-16T10:08:24.181Z,532
2022-11-16T10:13:24.253Z,490
2022-11-16T10:18:24.341Z,559
2022-11-16T10:23:24.068Z,530
2022-11-16T10:28:24.145Z,706
2022-11-16T10:33:24.027Z,961
2022-11-16T10:38:24.321Z,702
2022-11-16T10:43:41.162Z,661
2022-11-16T10:48:24.328Z,594
2022-11-16T10:53:24.163Z,636
2022-11-16T10:58:24.463Z,620
2022-11-16T11:03:24.195Z,685
2022-11-16T11:08:24.465Z,630
2022-11-16T11:13:25.139Z,774
2022-11-16T11:18:24.188Z,782
2022-11-16T11:23:24.274Z,925
2022-11-16T11:28:24.115Z,995
2022-11-16T11:33:24.207Z,887
2022-11-16T11:38:24.140Z,824
2022-11-16T11:43:39.465Z,1040
2022-11-16T11:48:24.154Z,970
2022-11-16T11:53:24.164Z,1080
2022-11-16T11:58:24.172Z,1175
2022-11-16T12:03:24.564Z,1262
2022-11-16T12:08:25.183Z,1187
2022-11-16T12:13:24.858Z,1123
2022-11-16T12:18:25.396Z,1566
2022-11-16T12:23:24.195Z,874
2022-11-16T12:28:24.549Z,904
2022-11-16T12:33:26.817Z,680
2022-11-16T12:38:26.464Z,638
2022-11-16T12:43:41.008Z,562
2022-11-16T12:48:24.655Z,604
2022-11-16T12:53:24.712Z,642
2022-11-16T12:58:25.342Z,601
2022-11-16T13:03:24.374Z,592
2022-11-16T13:08:24.279Z,543
2022-11-16T13:13:37.063Z,762
2022-11-16T13:18:24.903Z,539
2022-11-16T13:23:24.981Z,458
2022-11-16T13:28:28.137Z,542
2022-11-16T13:34:05.889Z,678
2022-11-16T13:38:25.126Z,668
2022-11-16T13:43:50.595Z,652
2022-11-16T13:48:24.325Z,661
2022-11-16T13:58:24.460Z,497
2022-11-16T14:03:31.368Z,502
2022-11-16T14:08:24.286Z,443
2022-11-16T14:13:24.301Z,398
2022-11-16T14:18:26.847Z,429
2022-11-16T14:23:24.335Z,445
2022-11-16T14:28:24.324Z,338
2022-11-16T14:33:25.006Z,325
2022-11-16T14:38:24.429Z,306
2022-11-16T14:43:38.858Z,296
2022-11-16T14:48:25.841Z,293
2022-11-16T14:53:26.217Z,300
2022-11-16T14:58:24.982Z,298
2022-11-16T15:03:26.121Z,287
2022-11-16T15:08:25.282Z,282
2022-11-16T15:13:24.648Z,279
2022-11-16T15:19:04.600Z,275
2022-11-16T15:23:30.741Z,271
2022-11-16T15:28:25.212Z,266
2022-11-16T15:33:32.835Z,262
2022-11-16T15:38:28.643Z,257
2022-11-16T15:44:13.847Z,256
2022-11-16T15:48:48.292Z,0
2022-11-16T15:53:27.399Z,0
2022-11-16T15:58:26.851Z,0
2022-11-16T16:03:59.797Z,0
2022-11-16T16:08:36.641Z,0
2022-11-16T16:13:26.349Z,0
2022-11-16T16:18:43.269Z,0
2022-11-16T16:23:27.630Z,0
2022-11-16T16:28:25.866Z,0
2022-11-16T16:36:52.509Z,0
2022-11-16T16:38:33.004Z,0
2022-11-16T16:44:23.833Z,0
2022-11-16T16:49:20.430Z,0
2022-11-16T16:54:14.981Z,0
2022-11-16T17:18:46.004Z,0
2022-11-16T18:58:50.703Z,0
2022-11-16T19:03:27.910Z,0
2022-11-16T19:08:29.203Z,0
2022-11-16T19:13:40.721Z,0
2022-11-16T19:18:27.914Z,0
2022-11-16T19:23:35.414Z,0
2022-11-16T19:28:27.916Z,0
2022-11-16T19:33:27.914Z,0
2022-11-16T19:38:27.924Z,0
2022-11-16T19:43:28.033Z,0
2022-11-16T19:48:28.898Z,0
2022-11-16T19:53:28.241Z,0
2022-11-16T19:58:28.859Z,0
2022-11-16T20:03:29.476Z,0
2022-11-16T20:08:28.521Z,0
2022-11-16T20:13:28.694Z,0
2022-11-16T20:18:29.035Z,0
2022-11-16T20:23:29.652Z,0
2022-11-16T20:28:29.707Z,0
2022-11-16T20:33:28.061Z,0
2022-11-16T20:38:28.272Z,0
2022-11-16T20:43:27.964Z,0
2022-11-16T20:48:27.862Z,0
2022-11-16T20:53:28.000Z,0
2022-11-16T20:58:28.088Z,0
2022-11-16T21:03:27.856Z,0
2022-11-16T21:08:27.916Z,0
2022-11-16T21:13:27.908Z,0
2022-11-16T21:18:30.470Z,0
2022-11-16T21:23:27.976Z,0
2022-11-16T21:28:27.851Z,0
2022-11-16T21:33:27.877Z,0
2022-11-16T21:38:28.139Z,0
2022-11-16T21:43:27.864Z,0
2022-11-16T21:48:27.892Z,0
2022-11-16T21:53:27.957Z,0
2022-11-16T21:58:28.020Z,0
2022-11-16T22:03:28.064Z,0
2022-11-16T22:08:28.112Z,0
2022-11-16T22:13:27.981Z,0
2022-11-16T22:18:27.984Z,0
2022-11-16T22:23:28.282Z,0
2022-11-16T22:28:28.148Z,0
2022-11-16T22:33:28.035Z,0
2022-11-16T22:38:28.150Z,0
2022-11-16T22:43:27.973Z,0
2022-11-16T22:48:27.971Z,0
2022-11-16T22:53:28.005Z,0
2022-11-16T22:58:27.895Z,0
2022-11-16T23:03:27.939Z,0
2022-11-16T23:08:28.019Z,0
2022-11-16T23:13:28.113Z,0
2022-11-16T23:18:27.875Z,0
2022-11-16T23:23:27.990Z,0
2022-11-16T23:28:27.908Z,0
2022-11-16T23:33:27.911Z,0
2022-11-16T23:38:27.966Z,0
2022-11-16T23:43:27.937Z,0
2022-11-16T23:48:27.916Z,0
2022-11-16T23:53:27.951Z,0
2022-11-16T23:58:27.959Z,0
